PWSweather.com
Personal Weather Stations
Station Observations
IMAZOWIE6
WarszawaPL

WarszawaPL

Lat: 52.27957, Lon: 21.05489

Elevation: 100

Station Type: WS1080

http://stacjapogody.waw.pl/

Latest ConditionsUpdated 3:20:10 PM GMT+01:01 Monday, Sep 24, 2018
Currently Today's Max Today's Min Today's Average
Temperature 56.1°F13.4°C 57.7°F14.3°C 47.3°F8.5°C 52.5°F11.4°C
Dew Point -167.2°F-110.7°C 22.0°F-5.6°C -167.4°F-110.8°C -46.8°F-43.8°C
Winds Calm Calm 0.6 mph -1.0 kmh - - 0.0 mph 0.0 kmh
Wind Gusts -- 4.0 mph6.4 kmh - -
Humidity - 32% 15% 30%
Pressure 29.54 in1000.3 mb 29.54 in1000.3 mb 29.07 in984.4 mb -
Hour Temp Dew Point Humidity Winds Wind Gusts Pressure Precip Precip Rate Daily Precip Total
03:20 PM 56.1°F13.4°C -167.2°F-110.7°C - Calm Calm -- 29.54 in1000.3 mb 0.00 in0.0 mm 0.00 in0.0 mm 0.26 in6.6 mm
03:05 PM 56.8°F13.8°C -167.1°F-110.6°C - Calm Calm 0.6 mph1.0 kmh 29.54 in1000.3 mb 0.00 in0.0 mm 0.00 in0.0 mm 0.26 in6.6 mm
02:50 PM 57.4°F14.1°C -167.1°F-110.6°C - Calm Calm 0.6 mph1.0 kmh 29.53 in1000.0 mb 0.00 in0.0 mm 0.00 in0.0 mm 0.26 in6.6 mm
02:35 PM 57.2°F14.0°C -167.1°F-110.6°C - Calm Calm 0.6 mph1.0 kmh 29.53 in1000.0 mb 0.00 in0.0 mm 0.00 in0.0 mm 0.26 in6.6 mm
02:20 PM 57.2°F14.0°C -167.1°F-110.6°C - Calm Calm -- 29.52 in999.7 mb 0.00 in0.0 mm 0.00 in0.0 mm 0.26 in6.6 mm
02:05 PM 57.6°F14.2°C -167.0°F-110.6°C - Calm Calm -- 29.52 in999.7 mb 0.00 in0.0 mm 0.00 in0.0 mm 0.26 in6.6 mm
01:50 PM 57.7°F14.3°C -167.0°F-110.6°C - Calm Calm -- 29.52 in999.7 mb 0.00 in0.0 mm 0.00 in0.0 mm 0.26 in6.6 mm
01:35 PM 56.8°F13.8°C -167.1°F-110.6°C - Calm Calm -- 29.52 in999.7 mb 0.00 in0.0 mm 0.00 in0.0 mm 0.26 in6.6 mm
01:20 PM 57.4°F14.1°C -167.1°F-110.6°C - Calm Calm -- 29.51 in999.3 mb 0.00 in0.0 mm 0.00 in0.0 mm 0.26 in6.6 mm
01:05 PM 57.0°F13.9°C -167.1°F-110.6°C - Calm Calm 0.6 mph1.0 kmh 29.51 in999.3 mb 0.01 in0.3 mm 0.02 in0.5 mm 0.26 in6.6 mm
12:50 PM 56.8°F13.8°C -167.1°F-110.6°C - Calm Calm -- 29.51 in999.3 mb 0.00 in0.0 mm 0.00 in0.0 mm 0.25 in6.4 mm
12:35 PM 57.6°F14.2°C -167.0°F-110.6°C - Calm Calm 0.6 mph1.0 kmh 29.50 in999.0 mb 0.00 in0.0 mm 0.00 in0.0 mm 0.25 in6.4 mm
12:20 PM 57.6°F14.2°C -167.0°F-110.6°C - Calm Calm 0.6 mph1.0 kmh 29.49 in998.6 mb 0.00 in0.0 mm 0.00 in0.0 mm 0.25 in6.4 mm
12:05 PM 56.8°F13.8°C -167.1°F-110.6°C - Calm Calm -- 29.49 in998.6 mb 0.00 in0.0 mm 0.00 in0.0 mm 0.25 in6.4 mm
11:50 AM 56.5°F13.6°C -167.2°F-110.7°C - Calm Calm -- 29.48 in998.3 mb 0.00 in0.0 mm 0.00 in0.0 mm 0.25 in6.4 mm
11:35 AM 56.7°F13.7°C -167.1°F-110.6°C - Calm Calm -- 29.48 in998.3 mb 0.00 in0.0 mm 0.00 in0.0 mm 0.25 in6.4 mm
11:20 AM 56.7°F13.7°C -167.1°F-110.6°C - Calm Calm -- 29.48 in998.3 mb 0.00 in0.0 mm 0.00 in0.0 mm 0.25 in6.4 mm
11:05 AM 57.4°F14.1°C -167.1°F-110.6°C - Calm Calm -- 29.47 in998.0 mb 0.00 in0.0 mm 0.00 in0.0 mm 0.25 in6.4 mm
10:50 AM 57.4°F14.1°C -167.1°F-110.6°C - Calm Calm -- 29.48 in998.3 mb 0.00 in0.0 mm 0.00 in0.0 mm 0.25 in6.4 mm
10:35 AM 54.5°F12.5°C -167.4°F-110.8°C - Calm Calm -- 29.47 in998.0 mb 0.00 in0.0 mm 0.00 in0.0 mm 0.25 in6.4 mm
10:20 AM 54.3°F12.4°C -167.4°F-110.8°C - Calm Calm -- 29.47 in998.0 mb 0.00 in0.0 mm 0.00 in0.0 mm 0.25 in6.4 mm
10:05 AM 54.3°F12.4°C -167.4°F-110.8°C - Calm Calm 0.6 mph1.0 kmh 29.46 in997.6 mb 0.00 in0.0 mm 0.00 in0.0 mm 0.25 in6.4 mm
09:50 AM 54.3°F12.4°C 7.5°F-13.6°C 15% 0.6 mph N1.0 kmh N 4.0 mph6.4 kmh 29.46 in997.6 mb 0.00 in0.0 mm 0.00 in0.0 mm 0.25 in6.4 mm
09:35 AM 53.2°F11.8°C 14.1°F-9.9°C 21% Calm Calm 2.0 mph3.2 kmh 29.44 in997.0 mb 0.00 in0.0 mm 0.00 in0.0 mm 0.25 in6.4 mm
09:20 AM 52.3°F11.3°C 16.4°F-8.7°C 24% Calm Calm 0.6 mph1.0 kmh 29.44 in997.0 mb 0.00 in0.0 mm 0.00 in0.0 mm 0.25 in6.4 mm
09:05 AM 52.3°F11.3°C 20.8°F-6.2°C 29% Calm Calm 0.6 mph1.0 kmh 29.43 in996.6 mb 0.00 in0.0 mm 0.00 in0.0 mm 0.25 in6.4 mm
08:50 AM 51.1°F10.6°C 20.5°F-6.4°C 30% Calm Calm -- 29.42 in996.3 mb 0.00 in0.0 mm 0.00 in0.0 mm 0.25 in6.4 mm
08:35 AM 50.9°F10.5°C 21.1°F-6.1°C 31% Calm Calm -- 29.41 in995.9 mb 0.00 in0.0 mm 0.00 in0.0 mm 0.25 in6.4 mm
08:20 AM 50.5°F10.3°C 21.6°F-5.8°C 32% Calm Calm 0.6 mph1.0 kmh 29.40 in995.6 mb 0.00 in0.0 mm 0.00 in0.0 mm 0.25 in6.4 mm
08:05 AM 50.7°F10.4°C 21.7°F-5.7°C 32% Calm Calm 1.4 mph2.3 kmh 29.39 in995.3 mb 0.00 in0.0 mm 0.00 in0.0 mm 0.25 in6.4 mm
07:50 AM 50.0°F10.0°C 21.1°F-6.1°C 32% Calm Calm -- 29.39 in995.3 mb 0.00 in0.0 mm 0.00 in0.0 mm 0.25 in6.4 mm
07:35 AM 50.0°F10.0°C 21.1°F-6.1°C 32% Calm Calm 0.6 mph1.0 kmh 29.38 in994.9 mb 0.00 in0.0 mm 0.00 in0.0 mm 0.25 in6.4 mm
07:20 AM 49.6°F9.8°C 20.8°F-6.2°C 32% Calm Calm 0.6 mph1.0 kmh 29.37 in994.6 mb 0.00 in0.0 mm 0.00 in0.0 mm 0.25 in6.4 mm
07:05 AM 49.6°F9.8°C 20.8°F-6.2°C 32% Calm Calm 0.6 mph1.0 kmh 29.37 in994.6 mb 0.00 in0.0 mm 0.00 in0.0 mm 0.25 in6.4 mm
06:50 AM 49.8°F9.9°C 20.9°F-6.2°C 32% Calm Calm -- 29.36 in994.2 mb 0.00 in0.0 mm 0.00 in0.0 mm 0.25 in6.4 mm
06:35 AM 49.6°F9.8°C 20.8°F-6.2°C 32% Calm Calm -- 29.35 in993.9 mb 0.00 in0.0 mm 0.00 in0.0 mm 0.25 in6.4 mm
06:20 AM 48.9°F9.4°C 20.1°F-6.6°C 32% Calm Calm -- 29.34 in993.6 mb 0.00 in0.0 mm 0.00 in0.0 mm 0.25 in6.4 mm
06:05 AM 48.9°F9.4°C 20.1°F-6.6°C 32% Calm Calm 0.6 mph1.0 kmh 29.34 in993.6 mb 0.01 in0.3 mm 0.00 in0.0 mm 0.25 in6.4 mm
05:50 AM 48.2°F9.0°C 19.5°F-6.9°C 32% Calm Calm 0.6 mph1.0 kmh 29.33 in993.2 mb 0.01 in0.3 mm 0.00 in0.0 mm 0.25 in6.4 mm
05:35 AM 48.0°F8.9°C 19.3°F-7.1°C 32% Calm Calm 1.4 mph2.3 kmh 29.33 in993.2 mb 0.01 in0.3 mm 0.05 in1.3 mm 0.25 in6.4 mm
05:20 AM 48.0°F8.9°C 18.6°F-7.4°C 31% Calm Calm -- 29.32 in992.9 mb 0.00 in0.0 mm 0.00 in0.0 mm 0.23 in5.8 mm
05:05 AM 48.2°F9.0°C 18.8°F-7.3°C 31% Calm Calm -- 29.31 in992.6 mb 0.02 in0.5 mm 0.00 in0.0 mm 0.23 in5.8 mm
04:50 AM 48.0°F8.9°C 18.6°F-7.4°C 31% Calm Calm -- 29.30 in992.2 mb 0.02 in0.5 mm 0.00 in0.0 mm 0.23 in5.8 mm
04:35 AM 47.7°F8.7°C 18.3°F-7.6°C 31% Calm Calm 0.6 mph1.0 kmh 29.29 in991.9 mb 0.02 in0.5 mm 0.05 in1.3 mm 0.23 in5.8 mm
04:20 AM 47.5°F8.6°C 18.1°F-7.7°C 31% Calm Calm -- 29.28 in991.5 mb 0.01 in0.3 mm 0.00 in0.0 mm 0.22 in5.6 mm
04:05 AM 47.3°F8.5°C 18.0°F-7.8°C 31% Calm Calm -- 29.26 in990.9 mb 0.06 in1.5 mm 0.02 in0.5 mm 0.22 in5.6 mm
03:50 AM 47.5°F8.6°C 18.1°F-7.7°C 31% Calm Calm -- 29.25 in990.5 mb 0.05 in1.3 mm 0.05 in1.3 mm 0.21 in5.3 mm
03:35 AM 48.0°F8.9°C 18.6°F-7.4°C 31% Calm Calm -- 29.23 in989.8 mb 0.04 in1.0 mm 0.05 in1.3 mm 0.20 in5.1 mm
03:20 AM 48.4°F9.1°C 18.9°F-7.3°C 31% Calm Calm -- 29.21 in989.2 mb 0.02 in0.5 mm 0.00 in0.0 mm 0.18 in4.6 mm
03:05 AM 48.6°F9.2°C 19.1°F-7.2°C 31% Calm Calm -- 29.20 in988.8 mb 0.10 in2.5 mm 0.02 in0.5 mm 0.18 in4.6 mm
02:50 AM 49.3°F9.6°C 20.5°F-6.4°C 32% Calm Calm -- 29.17 in987.8 mb 0.09 in2.3 mm 0.05 in1.3 mm 0.17 in4.3 mm
02:35 AM 50.0°F10.0°C 21.1°F-6.1°C 32% Calm Calm -- 29.13 in986.5 mb 0.07 in1.8 mm 0.10 in2.5 mm 0.16 in4.1 mm
02:20 AM 51.1°F10.6°C 22.0°F-5.6°C 32% Calm Calm -- 29.10 in985.4 mb 0.05 in1.3 mm 0.00 in0.0 mm 0.14 in3.6 mm
02:05 AM 51.4°F10.8°C 21.6°F-5.8°C 31% Calm Calm 1.4 mph2.3 kmh 29.09 in985.1 mb 0.06 in1.5 mm 0.02 in0.5 mm 0.14 in3.6 mm
01:50 AM 51.6°F10.9°C 21.8°F-5.7°C 31% Calm Calm -- 29.08 in984.8 mb 0.05 in1.3 mm 0.05 in1.3 mm 0.12 in3.0 mm
01:35 AM 51.8°F11.0°C 21.1°F-6.1°C 30% Calm Calm -- 29.08 in984.8 mb 0.04 in1.0 mm 0.05 in1.3 mm 0.11 in2.8 mm
01:20 AM 52.3°F11.3°C 20.8°F-6.2°C 29% Calm Calm -- 29.07 in984.4 mb 0.02 in0.5 mm 0.00 in0.0 mm 0.10 in2.5 mm
01:05 AM 52.3°F11.3°C 20.0°F-6.7°C 28% Calm Calm -- 29.07 in984.4 mb 0.09 in2.3 mm 0.02 in0.5 mm 0.10 in2.5 mm
12:50 AM 52.5°F11.4°C 19.3°F-7.1°C 27% Calm Calm -- 29.08 in984.8 mb 0.07 in1.8 mm 0.10 in2.5 mm 0.09 in2.3 mm
12:35 AM 52.5°F11.4°C 18.4°F-7.6°C 26% Calm Calm -- 29.08 in984.8 mb 0.05 in1.3 mm 0.10 in2.5 mm 0.06 in1.5 mm
12:20 AM 52.7°F11.5°C 18.6°F-7.4°C 26% Calm Calm -- 29.10 in985.4 mb 0.02 in0.5 mm 0.00 in0.0 mm 0.04 in1.0 mm
12:05 AM 52.7°F11.5°C 17.7°F-7.9°C 25% Calm Calm -- 29.09 in985.1 mb 0.04 in1.0 mm 0.44 in11.2 mm 0.04 in1.0 mm